METAR Data
IDs: Format: Raw Decoded Include TAF

Data at: 1206 UTC 24 May 2022

KLRD 241156Z 15006KT 10SM CLR 21/18 A2972 RMK AO2 SLP059 60088 7//// T02060183 10233 20189 55022